Amunt
Inicio > meteoXarxa
Fes-te'n soci

METEOXARXA

Castelló de la Plana
Ubicació Benadressa
Comarca la Plana Alta
Altitud (msnm) 75
Posició geogràfica 39° 58' 58.08" N, 00° 6' 43.92" W
Model
Presa de dades
Font de les dades IVIA
Estadístiques. Resum
Data Temperatura (ºC) Humitat (%) Pressió (hPa) Vent (km/h) Precipit. (mm)
Mínima Mitjana Màxima Mínima Mitjana Màxima Mínima Mitjana Màxima Predom. Mitjana Ràfega màxima Total Dies de pluja
Mínima Mitjana Màxima Mínima Mitjana Màxima
Últimes dades diàries
18-01-2017 -0,8     4,3     10,4 35,7 NW 7,2 18,4 0,0  
17-01-2017 0,8     7,6     12,6 38,0 NW 8,1 26,0 0,0  
16-01-2017 3,5     12,8     18,6 48,0 NW 6,5 26,3 0,0  
15-01-2017 0,9     8,6     15,9 54,4 NW 3,8 24,7 0,0  
13-01-2017 5,8     11,4     16,2 49,6 NW 6,2 22,6 0,0  
12-01-2017 4,7     11,8     19,0 74,7 W 3,9 17,1 0,0  
11-01-2017 5,2     11,2     14,9 64,1 NE 4,9 28,7 0,0  
10-01-2017 4,7     11,4     15,9 62,6 NW 9,0 34,4 0,2  
09-01-2017 2,0     7,9     15,4 75,1 W 4,4 13,3 0,0  
08-01-2017 2,7     7,7     16,6 73,2 W 3,9 12,7 0,0  
07-01-2017 3,4     7,9     14,7 82,3 W 4,1 12,9 0,0  
06-01-2017 3,4     8,6     14,3 77,9 NW 4,3 13,3 0,0  
05-01-2017 3,5     8,8     17,8 73,0 W 3,9 11,1 0,0  
04-01-2017 3,6     8,4     16,6 93,4 W 2,5 10,2 0,2  
03-01-2017 3,3     8,3     16,1 90,1 W 2,6 10,7 0,2  
02-01-2017 4,1     7,6     13,3 84,8 W 3,6 13,3 0,0  
01-01-2017 3,7     7,9     15,1 82,1 NW 4,0 12,0 0,0  
31-12-2016 5,3     8,8     16,0 80,1 W 3,7 11,4 0,0  
30-12-2016 2,7     7,3     15,4 78,8 W 4,2 14,8 0,2  
29-12-2016 1,2     7,2     15,7 78,8 W 4,0 12,3 0,0  
28-12-2016 4,9     9,0     17,2 78,3 W 4,4 13,0 0,0  
27-12-2016 4,7     9,4     17,4 86,2 W 3,0 9,3 0,2  
22-12-2016 7,2     11,1     19,6 71,7 W 4,4 15,1 0,0  
21-12-2016 6,2     12,0     17,3 58,6 NW 5,7 17,8 0,0  
20-12-2016 9,5     12,4     18,2 55,7 W 6,0 18,1 0,2  
19-12-2016 8,1     10,0     11,4 59,5 79,1 93,5 N 8,9 24,5 17,3  
18-12-2016 9,5     10,8     12,1 73,6 83,4 91,2 N 9,1 26,4 3,8  
17-12-2016 10,5     12,5     14,9 73,8 86,3 97,9 NE 9,0 27,3 27,5  
16-12-2016 10,3     12,1     15,2 79,6 91,7 98,8 N 4,2 21,7 21,5  
15-12-2016 5,6     9,8     14,2 65,7 85,1 96,8 O 3,7 12,8 0,0  
14-12-2016 6,0     9,7     16,6 56,8 86,0 98,2 O 3,5 12,5 0,2  
13-12-2016 5,8     10,1     16,8 61,5 84,0 98,8 O 3,3 12,0 0,0  
Dades del mes en curs (actualitzades fins l'últim dia disponible)
01/2017 -0,8 3,2 5,8 9,0 10,4 15,5 19,0 68,2   4,9 34,4 0,6  
Últimes dades mensuals
12/2016 1,2 7,4 14,2 11,0 11,4 16,7 19,6 55,7 82,0 91,7 4,6 27,3 91,3 14
11/2016 3,3 8,4 14,9 13,1 12,7 18,9 24,8 42,5 75,2 96,1 4,0 28,4 110,6 14
10/2016 9,8 14,8 17,5 18,8 19,6 24,2 27,5 70,4 80,6 92,8 3,0 20,4 27,5 13
09/2016 12,8 17,3 22,5 28,9 35,0 21,4 70,6 97,2 O 3,5 37,1 46,4
08/2016 15,7 19,3 24,8 30,6 34,3 23,9 70,2 95,3 SO 3,2 20,1 9,9
07/2016 15,8 19,2 25,1 30,9 33,5 27,3 64,5 94,9 SE 3,4 22,7 1,2
06/2016 12,4 16,2 20,8 22,4 24,4 28,4 33,2 36,4 61,5 75,5 3,6 27,5 1,0 2
05/2016 4,6 11,7 17,5 23,2 28,9 16,3 69,1 99,1 O 3,9 28,9 40,2
04/2016 5,2 9,3 15,0 21,2 28,4 17,1 68,5 99,3 NO 4,3 26,5 32,4
03/2016 1,2 6,2 12,2 18,7 25,7 17,6 63,2 99,1 NO 4,5 35,1 26,7
02/2016 -0,3 6,0 11,9 18,6 24,9 17,4 59,1 97,1 O 5,2 36,4 3,6
01/2016 0,3 5,7 11,2 17,8 22,9 17,2 70,6 99,3 O 3,8 30,9 1,2
12/2015 5,0 7,3 11,4 18,2 21,3 41,5 86,1 99,4 O 3,0 13,9 2,2
Dades de l'any en curs (actualitzades fins l'últim dia disponible)
2017 -0,8 3,2 5,8 9,0 10,4 15,5 19,0 68,2   4,9 34,4 0,6  
Últimes dades anuals
2006 483,6
2007 691,0
2008 452,0
2009 -1,9 14,3 22,4 19,5 6,6 25,3 40,1 34,0 68,3 99,0 3,3 39,0 549,0 47
2010 -3,6 10,4 23,2 15,8 5,9 21,8 37,7 35,0 71,0 99,0 3,6 105,0 388,0 98
2011 493,8
2012 304,0
2014 -1,0 11,6 16,9 23,0 33,7 13,2 67,2 96,6 NO 3,8 47,0 396,9
2015 -0,3 12,6 17,4 22,9 34,4 11,1 68,6 98,5 O 4,1 44,2 513,7